Main page
METAR-TAF:

METAR-TAF

Airports :

Santa Cruz Air Force Base

Santa Cruz, Rio de Janeiro, Brazil

latitude: 22-56S, longitude: 043-43W, elevation: 3 m

Current weather observation

The report was made 1 hour and 14 minutes ago, at 22:00 UTC
Wind 7 kt from the South
Temperature 24°C
Humidity 89%
Pressure 1014 hPa
Visibility 10 km or more
Few clouds at a height of 2500 ft
Broken clouds at a height of 10000 ft

METAR: SBSC 202200Z 18007KT 9999 FEW025 BKN100 24/22 Q1014

Time: 20:14 (23:14 UTC)

Forecast

The report was made 7 hours and 44 minutes ago, at 15:30 UTC
Forecast valid from 20 at 18 UTC to 21 at 06 UTC
Wind 7 kt from the Southwest
Visibility 10 km or more
Few clouds at a height of 3000 ft
Probability 40% :
Temporary
from 20 at 21 UTC to 21 at 04 UTC
Visibility: 8000 m
Scattered clouds at a height of 3000 ft
rain

TAF: SBSC 201530Z 2018/2106 22007KT 9999 FEW030 TX29/2018Z TN21/2106Z PROB40 TEMPO 2021/2104 8000 RA SCT030 RMK PDW

Weather observations and forecasts of more than 4000 airports (METAR and TAF reports).

The available stations are represented by yellow and red dots on the map.

Hover mouse over dot to see the name of the station.

Then click to see weather observations and forecasts.

To change the map : click on the green buttons with a black cross to zoom in, on the green button with a dash to zoom out, or on the green arrows for adjacent maps.


METAR-TAF: